createdAt,value
2019-01-11T07:36:46.507Z,22.87
2019-01-11T07:42:18.102Z,25.90
2019-01-11T07:44:48.037Z,27.35
2019-01-11T07:47:18.444Z,27.70
2019-01-11T07:49:49.676Z,25.77
2019-01-11T07:52:22.465Z,26.02
2019-01-11T07:54:52.959Z,25.97
2019-01-11T07:57:28.686Z,24.20
2019-01-11T07:59:59.060Z,26.20
2019-01-11T08:02:29.644Z,25.57
2019-01-11T08:05:02.885Z,26.35
2019-01-11T08:07:34.834Z,28.42
2019-01-11T08:10:06.250Z,27.27
2019-01-11T08:12:50.666Z,27.07
2019-01-11T08:15:19.599Z,22.55
2019-01-11T08:17:50.241Z,20.75
2019-01-11T08:20:20.681Z,24.02
2019-01-11T08:22:53.102Z,27.87
2019-01-11T08:25:23.154Z,23.87
2019-01-11T08:27:53.829Z,26.73
2019-01-11T08:30:27.934Z,26.57
2019-01-11T08:32:57.434Z,26.15
2019-01-11T08:35:31.186Z,27.67
2019-01-11T08:38:01.603Z,29.82
2019-01-11T08:40:32.001Z,29.33
2019-01-11T08:43:32.118Z,25.57
2019-01-11T08:45:59.949Z,26.50
2019-01-11T08:48:30.367Z,26.80
2019-01-11T08:51:02.793Z,23.65
2019-01-11T08:53:32.834Z,26.20
2019-01-11T08:56:08.335Z,28.43
2019-01-11T08:58:35.120Z,26.87
2019-01-11T09:01:05.658Z,27.05
2019-01-11T09:03:36.213Z,26.60
2019-01-11T09:06:06.743Z,27.17
2019-01-11T09:08:37.120Z,27.15
2019-01-11T09:11:15.637Z,26.02
2019-01-11T09:13:45.602Z,27.90
2019-01-11T09:16:20.653Z,25.95
2019-01-11T09:19:06.865Z,24.65
2019-01-11T09:21:41.567Z,27.37
2019-01-11T09:24:10.168Z,25.35
2019-01-11T09:26:40.624Z,27.55
2019-01-11T09:29:13.242Z,26.77
2019-01-11T09:31:43.476Z,25.65
2019-01-11T09:34:13.889Z,27.37
2019-01-11T09:36:44.209Z,28.15
2019-01-11T09:39:14.773Z,27.40
2019-01-11T09:41:45.250Z,28.60
2019-01-11T09:44:15.775Z,29.42
2019-01-11T09:46:46.140Z,30.52
2019-01-11T09:49:21.201Z,29.05
2019-01-11T09:51:51.574Z,29.15
2019-01-11T09:54:24.664Z,28.90
2019-01-11T09:56:54.904Z,29.77
2019-01-11T09:59:27.274Z,30.85
2019-01-11T10:02:16.937Z,29.10
2019-01-11T10:04:47.280Z,30.17
2019-01-11T10:07:28.865Z,29.18
2019-01-11T10:09:59.366Z,34.53
2019-01-11T10:12:30.112Z,36.53
2019-01-11T10:15:00.559Z,33.75
2019-01-11T10:17:31.136Z,31.50
2019-01-11T10:20:01.604Z,32.80
2019-01-11T10:22:32.013Z,33.58
2019-01-11T10:25:02.556Z,33.42
2019-01-11T10:27:35.883Z,34.60
2019-01-11T10:30:10.134Z,32.87
2019-01-11T10:32:40.805Z,33.95
2019-01-11T10:35:14.106Z,35.13
2019-01-11T10:37:44.541Z,34.40
2019-01-11T10:40:16.087Z,34.08
2019-01-11T10:42:46.454Z,32.60
2019-01-11T10:45:18.747Z,33.83
2019-01-11T10:47:50.562Z,33.38
2019-01-11T10:50:20.973Z,29.52
2019-01-11T10:52:51.466Z,33.00
2019-01-11T10:55:22.117Z,33.30
2019-01-11T10:57:52.684Z,34.00
2019-01-11T11:00:29.003Z,29.37
2019-01-11T11:02:59.806Z,31.40
2019-01-11T11:05:30.270Z,43.68
2019-01-11T11:08:01.772Z,38.42
2019-01-11T11:10:38.309Z,35.60
2019-01-11T11:13:12.752Z,35.03
2019-01-11T11:15:46.024Z,31.53
2019-01-11T11:18:16.555Z,32.47
2019-01-11T11:20:47.081Z,31.47
2019-01-11T11:23:17.808Z,30.60
2019-01-11T11:25:51.303Z,29.03
2019-01-11T11:28:22.617Z,30.60
2019-01-11T11:30:53.043Z,29.95
2019-01-11T11:33:24.757Z,28.77
2019-01-11T11:35:55.447Z,29.57
2019-01-11T11:38:34.341Z,28.70
2019-01-11T11:41:07.383Z,31.10
2019-01-11T11:43:48.676Z,31.15
2019-01-11T11:46:28.943Z,31.85
2019-01-11T11:49:24.187Z,29.30
2019-01-11T11:51:54.896Z,29.05
2019-01-11T11:54:44.795Z,29.67
2019-01-11T11:57:16.263Z,34.10
2019-01-11T11:59:47.291Z,40.12
2019-01-11T12:02:23.761Z,42.98
2019-01-11T12:04:57.799Z,40.80
2019-01-11T12:07:28.322Z,41.28
2019-01-11T12:09:59.028Z,40.93
2019-01-11T12:12:31.595Z,39.03
2019-01-11T12:15:05.267Z,39.53
2019-01-11T12:17:38.270Z,40.70
2019-01-11T12:20:16.105Z,36.07
2019-01-11T12:22:46.685Z,35.13
2019-01-11T12:25:18.496Z,35.70
2019-01-11T12:27:50.630Z,33.40
2019-01-11T12:30:21.207Z,32.60
2019-01-11T12:32:52.524Z,32.93
2019-01-11T12:35:26.210Z,33.43
2019-01-11T12:37:59.939Z,32.70
2019-01-11T12:40:32.151Z,33.70
2019-01-11T12:43:09.424Z,28.77
2019-01-11T12:45:39.997Z,30.63
2019-01-11T12:48:10.475Z,31.40
2019-01-11T12:50:44.543Z,30.07
2019-01-11T12:53:18.147Z,31.43
2019-01-11T12:55:49.105Z,29.37
2019-01-11T12:58:20.872Z,33.65
2019-01-11T13:00:56.185Z,31.70
